Time;durP1;ratioP1;P1;durP2;ratioP2;P2;SDS_P1;SDS_P2;PMS_P1;PMS_P2;Temp;Humidity;BMP_temperature;BMP_pressure;BME280_temperature;BME280_humidity;BME280_pressure;Samples;Min_cycle;Max_cycle;Signal;HPM_P1;HPM_P2
2023/08/25 00:00:12;;;;;;;87.30;83.22;;;;;;;31.27;65.23;98237.56;4927574;28;102829;-72
2023/08/25 00:02:40;;;;;;;90.70;86.53;;;;;;;31.74;63.89;98253.41;4927195;28;103232;-72
2023/08/25 00:05:10;;;;;;;93.97;89.78;;;;;;;31.48;64.60;98244.94;4925700;28;103432;-72
2023/08/25 00:07:38;;;;;;;88.77;84.77;;;;;;;31.54;64.50;98249.41;4927412;28;103244;-72
2023/08/25 00:10:07;;;;;;;91.10;87.00;;;;;;;31.70;63.83;98250.38;4927062;28;102800;-72
2023/08/25 00:12:35;;;;;;;83.78;79.97;;;;;;;31.17;65.16;98253.81;4927118;28;102687;-72
2023/08/25 00:15:04;;;;;;;84.85;81.00;;;;;;;31.76;63.90;98253.97;4925562;28;103272;-72
2023/08/25 00:17:33;;;;;;;82.20;78.50;;;;;;;31.08;64.90;98257.22;4926788;28;103150;-72
2023/08/25 00:20:05;;;;;;;81.88;78.18;;;;;;;31.13;65.38;98255.38;4927042;28;102752;-72
2023/08/25 00:22:35;;;;;;;84.43;80.70;;;;;;;31.14;64.99;98259.78;4909585;28;102985;-72
2023/08/25 00:25:03;;;;;;;86.60;82.70;;;;;;;31.15;64.98;98266.88;4926483;28;103832;-72
2023/08/25 00:27:30;;;;;;;75.60;72.20;;;;;;;30.88;66.21;98263.19;4926551;28;103268;-72
2023/08/25 00:29:58;;;;;;;78.97;75.37;;;;;;;30.93;65.80;98263.31;4909357;28;102777;-72
2023/08/25 00:32:26;;;;;;;77.18;73.57;;;;;;;30.88;65.75;98260.47;4926734;28;102651;-72
2023/08/25 00:34:54;;;;;;;71.25;67.95;;;;;;;30.55;67.08;98252.34;4908009;28;103309;-72
2023/08/25 00:37:25;;;;;;;71.07;67.78;;;;;;;31.30;64.59;98247.16;4925850;28;102987;-72
2023/08/25 00:39:57;;;;;;;72.28;68.75;;;;;;;31.18;64.65;98249.19;4925685;28;102857;-72
2023/08/25 00:42:25;;;;;;;76.07;72.57;;;;;;;31.40;63.94;98237.19;4925515;28;102860;-72
2023/08/25 00:44:53;;;;;;;75.63;72.13;;;;;;;31.30;63.76;98237.06;4926321;28;104170;-72
2023/08/25 00:47:21;;;;;;;76.32;72.75;;;;;;;31.83;62.10;98230.03;4925234;28;104209;-72
2023/08/25 00:49:49;;;;;;;70.32;67.07;;;;;;;31.12;63.85;98234.66;4925904;28;102604;-72
2023/08/25 00:52:18;;;;;;;65.25;62.20;;;;;;;30.30;66.23;98223.59;4925878;28;102718;-72
2023/08/25 00:54:49;;;;;;;75.05;71.65;;;;;;;30.87;64.76;98218.75;4924452;28;103951;-72
2023/08/25 00:57:19;;;;;;;98.13;93.70;;;;;;;31.07;65.04;98220.13;4925880;28;103290;-72
2023/08/25 00:59:51;;;;;;;94.07;89.77;;;;;;;31.04;64.46;98221.47;4925645;28;103263;-72
2023/08/25 01:02:19;;;;;;;100.43;95.93;;;;;;;31.81;62.07;98222.09;4925228;28;102662;-72
2023/08/25 01:04:47;;;;;;;91.55;87.45;;;;;;;31.53;62.64;98225.91;4923630;28;103147;-72
2023/08/25 01:07:15;;;;;;;92.18;88.03;;;;;;;31.70;62.20;98230.44;4926027;28;103299;-72
2023/08/25 01:09:44;;;;;;;85.68;81.75;;;;;;;31.62;62.74;98219.97;4909016;28;102760;-72
2023/08/25 01:12:27;;;;;;;89.50;85.20;;;;;;;31.80;62.10;98219.63;4926008;28;102896;-72
2023/08/25 01:15:04;;;;;;;85.47;81.57;;;;;;;31.40;62.53;98231.72;4908331;28;103500;-73
2023/08/25 01:17:40;;;;;;;81.87;77.97;;;;;;;31.02;63.96;98226.31;4925953;28;103273;-72
2023/08/25 01:20:09;;;;;;;82.93;79.13;;;;;;;31.22;63.20;98223.84;4926788;28;102774;-72
2023/08/25 01:22:49;;;;;;;84.07;80.28;;;;;;;31.89;62.17;98226.28;4925481;28;102860;-72
2023/08/25 01:25:23;;;;;;;78.65;75.03;;;;;;;31.40;62.61;98229.00;4925958;28;103193;-72
2023/08/25 01:27:52;;;;;;;91.38;87.38;;;;;;;32.01;61.32;98216.03;4908511;28;104065;-72
2023/08/25 01:30:22;;;;;;;77.75;74.15;;;;;;;32.28;61.30;98218.72;4924078;28;102695;-72
2023/08/25 01:32:51;;;;;;;82.25;78.55;;;;;;;32.54;60.96;98212.38;4908161;28;103880;-72
2023/08/25 01:35:24;;;;;;;74.57;71.18;;;;;;;32.08;62.44;98216.66;4926095;28;103270;-72
2023/08/25 01:38:07;;;;;;;76.53;73.03;;;;;;;31.70;63.36;98219.50;4908474;28;103718;-72
2023/08/25 01:40:42;;;;;;;71.22;68.03;;;;;;;31.62;63.60;98218.06;4924534;28;102974;-72
2023/08/25 01:43:17;;;;;;;63.83;60.83;;;;;;;31.53;64.01;98214.97;4926065;28;102740;-72
2023/08/25 01:45:46;;;;;;;69.88;66.68;;;;;;;32.27;61.97;98209.69;4926133;28;103289;-72
2023/08/25 01:48:17;;;;;;;66.60;63.50;;;;;;;32.26;61.31;98218.97;4927587;28;102989;-72
2023/08/25 01:50:50;;;;;;;64.10;61.20;;;;;;;32.27;60.69;98222.53;4927530;28;103039;-72
2023/08/25 01:53:20;;;;;;;57.50;54.90;;;;;;;31.28;63.25;98222.84;4927537;28;102665;-72
2023/08/25 01:55:49;;;;;;;60.75;57.85;;;;;;;32.04;60.87;98220.97;4928155;28;103765;-73
2023/08/25 01:58:17;;;;;;;61.38;58.63;;;;;;;32.17;60.41;98215.06;4927505;28;103267;-72
2023/08/25 02:00:45;;;;;;;64.80;61.85;;;;;;;32.26;60.33;98210.78;4928099;28;102936;-72
2023/08/25 02:03:13;;;;;;;61.20;58.47;;;;;;;32.21;60.61;98223.56;4929073;28;102581;-72
2023/08/25 02:05:42;;;;;;;65.15;62.08;;;;;;;32.37;60.26;98220.69;4927807;28;103503;-72
2023/08/25 02:08:14;;;;;;;62.20;59.40;;;;;;;32.44;59.91;98209.53;4928486;28;103291;-72
2023/08/25 02:10:45;;;;;;;62.72;59.83;;;;;;;32.36;60.17;98208.13;4929499;28;102915;-72
2023/08/25 02:13:15;;;;;;;57.00;54.40;;;;;;;32.25;60.29;98209.16;4929595;28;102786;-72
2023/08/25 02:15:45;;;;;;;51.45;48.95;;;;;;;31.70;62.17;98205.84;4928503;28;103555;-73
2023/08/25 02:18:13;;;;;;;56.17;53.57;;;;;;;31.73;61.08;98208.91;4928475;28;103200;-72
2023/08/25 02:20:41;;;;;;;54.47;51.97;;;;;;;31.95;61.06;98200.63;4926597;28;102557;-72
2023/08/25 02:23:09;;;;;;;79.88;76.28;;;;;;;31.29;61.74;98204.56;4911600;28;102913;-72
2023/08/25 02:25:37;;;;;;;74.90;71.50;;;;;;;31.39;61.57;98205.50;4927060;28;104344;-72
2023/08/25 02:28:06;;;;;;;82.03;78.32;;;;;;;31.87;60.70;98199.22;4927450;28;103261;-72
2023/08/25 02:30:38;;;;;;;82.25;78.60;;;;;;;32.16;61.10;98204.41;4927680;28;102635;-72
2023/08/25 02:33:06;;;;;;;80.50;76.90;;;;;;;31.61;61.50;98193.78;4928585;28;103096;-72
2023/08/25 02:35:36;;;;;;;79.50;75.87;;;;;;;31.94;60.91;98193.53;4927043;28;103142;-72
2023/08/25 02:38:07;;;;;;;74.72;71.25;;;;;;;31.40;61.35;98182.59;4908252;28;103416;-72
2023/08/25 02:40:37;;;;;;;74.82;71.43;;;;;;;31.66;61.04;98183.72;4907513;28;103442;-73
2023/08/25 02:43:06;;;;;;;79.23;75.63;;;;;;;31.82;60.87;98173.75;4909366;28;102788;-73
2023/08/25 02:45:35;;;;;;;76.60;73.05;;;;;;;31.93;60.21;98175.50;4925781;28;103147;-72
2023/08/25 02:48:06;;;;;;;81.07;77.35;;;;;;;31.97;60.19;98160.25;4928071;28;103284;-73
2023/08/25 02:50:34;;;;;;;74.15;70.80;;;;;;;31.88;59.90;98172.72;4928263;28;102515;-73
2023/08/25 02:53:04;;;;;;;73.22;69.80;;;;;;;31.55;60.56;98163.66;4927535;28;103212;-73
2023/08/25 02:55:35;;;;;;;74.30;71.00;;;;;;;31.83;59.97;98165.28;4910507;28;103400;-72
2023/08/25 02:58:05;;;;;;;71.43;68.22;;;;;;;31.84;60.37;98164.22;4910284;28;103750;-73
2023/08/25 03:00:33;;;;;;;71.75;68.45;;;;;;;31.72;60.28;98165.50;4928205;28;102940;-73
2023/08/25 03:03:01;;;;;;;79.90;76.38;;;;;;;32.06;59.90;98159.53;4928924;28;104003;-73
2023/08/25 03:05:30;;;;;;;79.15;75.55;;;;;;;31.99;59.93;98152.63;4926517;28;103861;-73
2023/08/25 03:07:58;;;;;;;75.90;72.40;;;;;;;32.00;59.99;98159.72;4926849;28;103528;-73
2023/08/25 03:10:27;;;;;;;78.80;75.32;;;;;;;32.11;60.31;98153.28;4910088;28;102944;-72
2023/08/25 03:12:57;;;;;;;68.85;65.65;;;;;;;31.44;60.79;98153.72;4910545;28;103981;-72
2023/08/25 03:15:26;;;;;;;71.20;67.95;;;;;;;31.68;60.23;98145.22;4910346;28;103525;-72
2023/08/25 03:17:54;;;;;;;63.55;60.65;;;;;;;31.69;60.58;98152.34;4928225;28;103089;-73
2023/08/25 03:20:24;;;;;;;68.97;65.85;;;;;;;32.04;59.88;98144.47;4910302;28;102830;-72
2023/08/25 03:22:54;;;;;;;61.47;58.67;;;;;;;31.88;60.35;98142.69;4910312;28;102806;-72
2023/08/25 03:25:22;;;;;;;61.85;59.05;;;;;;;32.01;59.53;98139.53;4927607;28;104600;-72
2023/08/25 03:27:50;;;;;;;62.33;59.53;;;;;;;32.15;59.13;98135.28;4910279;28;103192;-73
2023/08/25 03:30:19;;;;;;;63.20;60.28;;;;;;;32.15;59.37;98135.28;4927914;28;102764;-73
2023/08/25 03:32:47;;;;;;;63.47;60.53;;;;;;;32.16;59.74;98130.63;4927254;28;103963;-73
2023/08/25 03:35:15;;;;;;;57.50;54.80;;;;;;;31.65;60.61;98132.94;4909264;28;103625;-73
2023/08/25 03:37:43;;;;;;;51.45;48.95;;;;;;;31.32;61.67;98131.22;4922680;28;103238;-73
2023/08/25 03:40:13;;;;;;;54.10;51.42;;;;;;;31.25;61.68;98125.13;4923698;28;102495;-73
2023/08/25 03:42:41;;;;;;;57.75;55.05;;;;;;;31.25;61.88;98127.84;4910344;28;102992;-73
2023/08/25 03:45:10;;;;;;;54.47;51.87;;;;;;;31.16;62.75;98128.59;4925624;28;103353;-72
2023/08/25 03:47:37;;;;;;;55.05;52.25;;;;;;;30.72;63.08;98125.00;4909586;28;103223;-72
2023/08/25 03:50:07;;;;;;;59.10;56.38;;;;;;;31.34;61.57;98111.84;4926068;28;103332;-72
2023/08/25 03:52:36;;;;;;;56.30;53.60;;;;;;;31.14;62.00;98112.47;4910025;28;103905;-73
2023/08/25 03:55:04;;;;;;;53.93;51.43;;;;;;;31.08;62.16;98102.56;4910123;28;104056;-73
2023/08/25 03:57:34;;;;;;;53.58;51.00;;;;;;;31.22;62.26;98095.63;4926814;28;103560;-72
2023/08/25 04:00:03;;;;;;;55.25;52.75;;;;;;;31.13;62.04;98093.63;4926370;28;102817;-72
2023/08/25 04:02:39;;;;;;;51.07;48.77;;;;;;;30.95;62.09;98092.06;4927406;28;103137;-72
2023/08/25 04:05:08;;;;;;;45.97;43.63;;;;;;;30.41;64.34;98096.53;4925815;28;103249;-74
2023/08/25 04:07:36;;;;;;;50.17;47.83;;;;;;;30.73;62.99;98085.78;4910189;28;102917;-73
2023/08/25 04:10:07;;;;;;;45.33;43.03;;;;;;;30.52;63.89;98089.31;4925920;28;102735;-72
2023/08/25 04:12:39;;;;;;;47.33;45.13;;;;;;;30.77;63.03;98081.44;4910010;28;104051;-73
2023/08/25 04:15:08;;;;;;;46.37;44.27;;;;;;;30.66;62.92;98079.69;4925629;28;103186;-73
2023/08/25 04:17:38;;;;;;;46.35;44.00;;;;;;;30.21;64.39;98067.09;4927561;28;103198;-73
2023/08/25 04:20:07;;;;;;;48.40;45.92;;;;;;;30.86;62.81;98066.28;4909722;28;102811;-73
2023/08/25 04:22:35;;;;;;;49.58;47.17;;;;;;;30.42;63.64;98074.50;4909657;28;103382;-72
2023/08/25 04:25:04;;;;;;;41.28;39.20;;;;;;;30.26;64.85;98072.59;4925758;28;103370;-73
2023/08/25 04:27:32;;;;;;;41.77;39.70;;;;;;;30.53;63.49;98070.00;4918320;28;103219;-73
2023/08/25 04:30:01;;;;;;;48.25;45.95;;;;;;;30.98;62.23;98072.47;4908727;28;102590;-73
2023/08/25 04:32:30;;;;;;;51.50;49.20;;;;;;;31.40;61.14;98072.63;4909020;28;102923;-72
2023/08/25 04:34:59;;;;;;;49.28;46.97;;;;;;;31.27;61.19;98068.38;4908693;28;103460;-73
2023/08/25 04:37:28;;;;;;;48.13;45.73;;;;;;;30.96;61.10;98072.72;4925365;28;103191;-72
2023/08/25 04:39:56;;;;;;;45.78;43.58;;;;;;;30.90;61.52;98062.81;4918779;28;102807;-72
2023/08/25 04:42:26;;;;;;;44.78;42.63;;;;;;;31.09;61.04;98065.22;4926159;28;104397;-72
2023/08/25 04:44:54;;;;;;;96.68;92.30;;;;;;;30.92;61.59;98065.28;4908929;28;103871;-72
2023/08/25 04:47:25;;;;;;;128.43;122.85;;;;;;;31.52;60.13;98057.75;4925084;28;104330;-72
2023/08/25 04:49:57;;;;;;;119.72;114.72;;;;;;;31.61;60.42;98057.28;4920978;28;102587;-73
2023/08/25 04:52:26;;;;;;;86.43;82.38;;;;;;;30.76;62.37;98047.09;4922391;28;102906;-72
2023/08/25 04:54:54;;;;;;;111.40;106.63;;;;;;;31.56;60.47;98053.41;4905544;28;103506;-73
2023/08/25 04:57:22;;;;;;;121.35;116.20;;;;;;;31.71;60.67;98046.44;4907169;28;103413;-72
2023/08/25 04:59:50;;;;;;;98.88;94.53;;;;;;;31.63;61.11;98038.72;4921475;28;103093;-72
2023/08/25 05:02:19;;;;;;;73.45;70.00;;;;;;;30.19;65.15;98036.56;4906252;28;102920;-72
2023/08/25 05:04:49;;;;;;;92.65;88.75;;;;;;;31.36;62.14;98039.56;4921972;28;103431;-72
2023/08/25 05:07:17;;;;;;;80.18;76.68;;;;;;;31.04;62.65;98046.91;4906620;28;103484;-73
2023/08/25 05:09:47;;;;;;;96.25;92.15;;;;;;;31.43;61.20;98037.47;4906005;28;103003;-73
2023/08/25 05:12:18;;;;;;;103.78;99.28;;;;;;;31.52;60.55;98032.38;4905957;28;104033;-72
2023/08/25 05:14:46;;;;;;;87.83;83.97;;;;;;;30.74;63.03;98028.25;4906110;28;103355;-72
2023/08/25 05:17:15;;;;;;;78.75;75.22;;;;;;;31.15;61.94;98028.72;4922127;28;104234;-73
2023/08/25 05:19:46;;;;;;;105.72;101.22;;;;;;;31.73;60.19;98022.41;4924466;28;102966;-73
2023/08/25 05:22:15;;;;;;;114.65;109.60;;;;;;;31.99;59.41;98026.97;4909787;28;103420;-73
2023/08/25 05:24:45;;;;;;;103.32;98.88;;;;;;;31.13;61.52;98034.44;4893147;28;102966;-73
2023/08/25 05:27:13;;;;;;;108.38;103.68;;;;;;;31.79;60.27;98048.66;4908385;28;103245;-73
2023/08/25 05:29:41;;;;;;;99.53;95.20;;;;;;;31.80;60.10;98037.50;4909440;28;102730;-73
2023/08/25 05:32:19;;;;;;;78.17;74.67;;;;;;;31.44;61.74;98036.34;4909654;28;103502;-72
2023/08/25 05:35:22;;;;;;;118.20;113.10;;;;;;;32.08;58.28;98041.81;4924358;28;103427;-73
2023/08/25 05:37:54;;;;;;;81.47;77.67;;;;;;;31.29;61.29;98036.25;4925650;28;103377;-73
2023/08/25 05:40:23;;;;;;;132.63;127.13;;;;;;;32.40;58.34;98049.88;4924801;28;102846;-72
2023/08/25 05:42:52;;;;;;;116.40;111.50;;;;;;;32.37;58.50;98055.88;4894423;28;103045;-72
2023/08/25 05:45:22;;;;;;;114.72;109.82;;;;;;;32.58;59.18;98061.22;4930976;28;103196;-71
2023/08/25 05:47:50;;;;;;;126.53;121.22;;;;;;;32.93;58.11;98081.59;4915356;28;103309;-73
2023/08/25 05:50:19;;;;;;;138.07;132.20;;;;;;;32.82;56.92;98093.56;4932786;28;103323;-73
2023/08/25 05:52:47;;;;;;;92.38;88.38;;;;;;;31.41;61.30;98102.38;4893305;28;102682;-73
2023/08/25 05:55:19;;;;;;;102.30;97.90;;;;;;;32.36;59.52;98109.75;4908322;28;104943;-73
2023/08/25 05:57:47;;;;;;;128.68;123.25;;;;;;;32.85;57.69;98118.47;4909589;28;103259;-73
2023/08/25 06:00:18;;;;;;;100.18;95.88;;;;;;;32.64;60.40;98125.78;4910451;28;103031;-73
2023/08/25 06:02:45;;;;;;;78.80;75.13;;;;;;;31.48;62.62;98130.31;4912865;28;103792;-73
2023/08/25 06:05:16;;;;;;;103.75;99.35;;;;;;;32.57;59.63;98144.31;4922205;28;104206;-73
2023/08/25 06:07:44;;;;;;;81.53;77.93;;;;;;;32.08;60.96;98172.94;4928918;28;103114;-73
2023/08/25 06:10:12;;;;;;;59.43;56.93;;;;;;;32.12;60.94;98198.63;4929240;28;102715;-73
2023/08/25 06:12:41;;;;;;;49.67;47.47;;;;;;;30.87;63.97;98264.28;4912593;28;102612;-73
2023/08/25 06:15:11;;;;;;;49.63;47.43;;;;;;;30.31;66.52;98296.09;4928411;28;103949;-73
2023/08/25 06:17:40;;;;;;;51.85;49.58;;;;;;;31.12;63.46;98288.38;4928528;28;103194;-73
2023/08/25 06:20:11;;;;;;;51.13;48.93;;;;;;;31.02;63.69;98327.25;4929170;28;102720;-73
2023/08/25 06:22:41;;;;;;;60.95;58.20;;;;;;;31.55;61.79;98354.75;4929000;28;104196;-73
2023/08/25 06:25:10;;;;;;;49.05;46.65;;;;;;;30.34;65.83;98344.63;4928345;28;103282;-72
2023/08/25 06:27:41;;;;;;;46.40;44.30;;;;;;;29.47;68.12;98329.56;4911814;28;103185;-73
2023/08/25 06:30:10;;;;;;;45.97;43.88;;;;;;;29.63;67.57;98345.13;4926779;28;103361;-74
2023/08/25 06:32:38;;;;;;;46.78;44.78;;;;;;;30.36;65.49;98328.88;4928490;28;102849;-73
2023/08/25 06:35:07;;;;;;;51.00;48.77;;;;;;;31.18;62.92;98350.97;4927444;28;103240;-73
2023/08/25 06:37:35;;;;;;;49.23;47.07;;;;;;;31.05;63.30;98355.94;4927515;28;103364;-74
2023/08/25 06:40:05;;;;;;;49.38;47.33;;;;;;;31.05;64.00;98361.41;4928222;28;102489;-73
2023/08/25 06:42:33;;;;;;;49.35;47.25;;;;;;;30.35;66.25;98369.97;4928478;28;102837;-73
2023/08/25 06:45:05;;;;;;;49.80;47.58;;;;;;;30.41;65.88;98358.13;4910501;28;104043;-73
2023/08/25 06:47:34;;;;;;;49.35;47.05;;;;;;;30.56;65.79;98355.66;4910871;28;103202;-73
2023/08/25 06:50:03;;;;;;;47.03;44.92;;;;;;;30.68;65.47;98347.41;4910627;28;102798;-73
2023/08/25 06:52:36;;;;;;;46.92;44.95;;;;;;;30.97;64.47;98368.91;4928652;28;102824;-73
2023/08/25 06:55:04;;;;;;;52.20;49.90;;;;;;;30.85;65.95;98375.50;4910446;28;105140;-73
2023/08/25 06:57:34;;;;;;;64.97;62.17;;;;;;;30.53;67.01;98377.13;4927562;28;103325;-73
2023/08/25 07:00:04;;;;;;;66.93;64.05;;;;;;;30.54;67.08;98362.44;4928708;28;102494;-74
2023/08/25 07:02:34;;;;;;;72.75;69.82;;;;;;;30.51;68.19;98357.47;4926443;28;104235;-73
2023/08/25 07:05:02;;;;;;;63.95;61.20;;;;;;;30.76;66.91;98356.00;4925988;28;103277;-73
2023/08/25 07:07:31;;;;;;;70.97;67.75;;;;;;;30.53;68.78;98347.16;4910414;28;103228;-74
2023/08/25 07:09:59;;;;;;;84.18;80.75;;;;;;;30.14;69.95;98327.94;4928407;28;102490;-74
2023/08/25 07:12:29;;;;;;;80.78;77.63;;;;;;;30.68;69.60;98339.25;4928708;28;102562;-74
2023/08/25 07:14:57;;;;;;;86.70;83.20;;;;;;;30.40;70.82;98338.22;4927614;28;103254;-74
2023/08/25 07:17:25;;;;;;;80.15;76.95;;;;;;;30.65;69.28;98326.09;4927399;28;103357;-74
2023/08/25 07:19:54;;;;;;;139.02;133.63;;;;;;;29.74;73.04;98335.28;4926889;28;102996;-74
2023/08/25 07:22:23;;;;;;;57.60;55.30;;;;;;;31.06;69.72;98344.75;4922564;28;102848;-74
2023/08/25 07:24:53;;;;;;;47.87;45.87;;;;;;;31.41;67.81;98356.16;4908569;28;103443;-74
2023/08/25 07:27:23;;;;;;;58.83;56.33;;;;;;;31.10;68.94;98356.84;4917262;28;103113;-74
2023/08/25 07:29:53;;;;;;;53.80;51.50;;;;;;;31.23;69.08;98377.47;4927872;28;102755;-74
2023/08/25 07:32:21;;;;;;;80.57;77.33;;;;;;;31.18;69.88;98405.53;4927004;28;103288;-74
2023/08/25 07:34:51;;;;;;;66.33;63.50;;;;;;;31.24;68.60;98406.41;4927944;28;103144;-74
2023/08/25 07:37:21;;;;;;;61.85;58.95;;;;;;;30.93;69.14;98395.00;4927350;28;103133;-74
2023/08/25 07:39:51;;;;;;;82.88;79.40;;;;;;;30.34;70.03;98418.22;4927803;28;102923;-74
2023/08/25 07:42:19;;;;;;;114.35;109.93;;;;;;;30.20;72.09;98437.81;4927213;28;103910;-74
2023/08/25 07:44:48;;;;;;;93.00;89.10;;;;;;;30.25;72.09;98444.19;4926369;28;103264;-74
2023/08/25 07:47:16;;;;;;;101.35;97.35;;;;;;;30.43;71.91;98437.72;4926893;28;103234;-74
2023/08/25 07:49:46;;;;;;;61.50;58.97;;;;;;;31.04;69.61;98452.47;4927993;28;102848;-74
2023/08/25 07:52:14;;;;;;;70.00;67.10;;;;;;;30.78;70.26;98448.44;4928678;28;102968;-74
2023/08/25 07:54:44;;;;;;;68.60;65.63;;;;;;;30.77;70.63;98465.88;4927717;28;103120;-74
2023/08/25 07:57:11;;;;;;;126.07;121.00;;;;;;;30.08;73.53;98484.16;4913224;28;102562;-74
2023/08/25 07:59:39;;;;;;;118.40;113.60;;;;;;;30.26;72.95;98502.22;4927467;28;102938;-74
2023/08/25 08:02:08;;;;;;;106.05;101.75;;;;;;;30.35;72.69;98498.03;4927445;28;103151;-74
2023/08/25 08:04:36;;;;;;;67.90;65.03;;;;;;;30.89;70.72;98481.09;4926738;28;103359;-74
2023/08/25 08:07:05;;;;;;;100.70;96.82;;;;;;;30.54;71.89;98477.72;4927369;28;103332;-75
2023/08/25 08:09:33;;;;;;;98.60;94.63;;;;;;;30.10;72.49;98476.56;4925513;28;102786;-74
2023/08/25 08:12:04;;;;;;;97.35;93.43;;;;;;;30.41;71.68;98481.56;4927234;28;103349;-74
2023/08/25 08:14:36;;;;;;;73.95;70.90;;;;;;;30.58;71.37;98461.72;4906888;28;103233;-74
2023/08/25 08:17:13;;;;;;;84.93;81.53;;;;;;;30.53;71.88;98443.38;4907479;28;103333;-75
2023/08/25 08:19:41;;;;;;;72.03;69.13;;;;;;;30.96;71.07;98448.25;4907147;28;102841;-75
2023/08/25 08:22:09;;;;;;;60.67;57.97;;;;;;;30.94;70.34;98455.84;4907324;28;103610;-74
2023/08/25 08:24:38;;;;;;;61.38;58.78;;;;;;;30.77;70.58;98457.69;4907345;28;103013;-74
2023/08/25 08:27:19;;;;;;;80.97;77.50;;;;;;;30.30;71.41;98471.53;4917951;28;103459;-74
2023/08/25 08:29:49;;;;;;;91.93;88.18;;;;;;;29.68;73.44;98475.06;4910081;28;102674;-74
2023/08/25 08:32:17;;;;;;;80.67;77.40;;;;;;;29.83;73.00;98470.81;4927380;28;102985;-74
2023/08/25 08:34:45;;;;;;;103.38;98.97;;;;;;;29.21;75.26;98466.03;4927103;28;103278;-73
2023/08/25 08:37:15;;;;;;;90.03;86.20;;;;;;;29.55;74.98;98448.09;4932491;28;103191;-75
2023/08/25 08:39:45;;;;;;;51.77;49.47;;;;;;;30.00;73.61;98426.50;4932220;28;102726;-74
2023/08/25 08:42:15;;;;;;;55.10;52.60;;;;;;;29.86;73.97;98390.56;4927885;28;102646;-74
2023/08/25 08:44:47;;;;;;;41.57;39.57;;;;;;;29.98;72.71;98353.19;4926363;28;103283;-74
2023/08/25 08:47:16;;;;;;;40.42;38.33;;;;;;;30.40;71.67;98354.56;4926839;28;103177;-74
2023/08/25 08:49:45;;;;;;;48.67;46.47;;;;;;;30.50;71.10;98325.84;4926739;28;102927;-74
2023/08/25 08:52:13;;;;;;;47.37;45.17;;;;;;;30.66;70.55;98328.56;4925936;28;102744;-74
2023/08/25 08:54:42;;;;;;;43.75;41.95;;;;;;;31.06;69.91;98301.13;4926610;28;104306;-74
2023/08/25 08:57:14;;;;;;;51.40;49.15;;;;;;;31.02;69.23;98289.88;4925477;28;103236;-74
2023/08/25 08:59:43;;;;;;;51.97;49.47;;;;;;;30.92;69.14;98267.94;4925827;28;103029;-74
2023/08/25 09:02:14;;;;;;;54.95;52.75;;;;;;;31.45;67.86;98244.59;4925685;28;103656;-74
2023/08/25 09:04:44;;;;;;;60.20;57.80;;;;;;;31.46;68.00;98233.44;4926130;28;104183;-74
2023/08/25 09:07:13;;;;;;;67.37;64.67;;;;;;;31.51;67.54;98187.13;4925447;28;103248;-74
2023/08/25 09:09:41;;;;;;;92.05;88.45;;;;;;;31.08;68.73;98200.75;4926888;28;102870;-74
2023/08/25 09:12:09;;;;;;;166.60;160.40;;;;;;;29.43;74.97;98262.25;4925784;28;102749;-74
2023/08/25 09:14:37;;;;;;;207.70;200.30;;;;;;;29.59;74.75;98272.38;4926154;28;103915;-73
2023/08/25 09:17:06;;;;;;;218.38;210.55;;;;;;;29.64;74.50;98250.72;4925520;28;103315;-73
2023/08/25 09:19:35;;;;;;;205.88;198.27;;;;;;;30.03;73.83;98240.84;4926511;28;102885;-74
2023/08/25 09:22:05;;;;;;;185.57;178.50;;;;;;;30.50;72.27;98254.97;4926674;28;104858;-75
2023/08/25 09:24:34;;;;;;;193.23;185.93;;;;;;;29.99;73.54;98250.56;4928209;28;103917;-73
2023/08/25 09:27:02;;;;;;;342.07;329.27;;;;;;;29.58;75.96;98243.50;4928927;28;102731;-73
2023/08/25 09:29:41;;;;;;;253.25;243.95;;;;;;;29.89;74.09;98224.00;4930844;28;102630;-74
2023/08/25 09:32:14;;;;;;;223.47;214.87;;;;;;;30.58;71.94;98213.69;4934114;28;102567;-73
2023/08/25 09:34:43;;;;;;;253.93;244.50;;;;;;;30.60;72.04;98193.28;4927746;28;104206;-74
2023/08/25 09:37:11;;;;;;;231.55;222.85;;;;;;;30.99;71.47;98169.59;4925053;28;102981;-73
2023/08/25 09:39:43;;;;;;;218.80;210.43;;;;;;;31.29;71.00;98172.66;4926039;28;102877;-74
2023/08/25 09:42:16;;;;;;;216.20;208.10;;;;;;;30.40;71.01;98169.28;4926262;28;103834;-74
2023/08/25 09:44:46;;;;;;;241.90;233.02;;;;;;;31.11;70.90;98178.44;4920699;28;103404;-74
2023/08/25 09:47:14;;;;;;;280.92;270.67;;;;;;;30.54;73.48;98182.56;4925336;28;103268;-73
2023/08/25 09:49:47;;;;;;;291.50;280.73;;;;;;;29.66;75.61;98180.53;4924479;28;102873;-73
2023/08/25 09:52:19;;;;;;;318.20;306.40;;;;;;;29.43;76.62;98169.75;4925817;28;102862;-73
2023/08/25 09:54:47;;;;;;;331.42;319.00;;;;;;;29.43;77.11;98169.75;4925605;28;103310;-74
2023/08/25 09:57:15;;;;;;;324.52;312.30;;;;;;;29.53;75.51;98180.84;4925605;28;103218;-73
2023/08/25 09:59:43;;;;;;;303.08;291.83;;;;;;;30.01;74.96;98188.53;4926143;28;102578;-73
2023/08/25 10:02:12;;;;;;;258.60;249.05;;;;;;;30.83;73.60;98192.22;4925526;28;104240;-73
2023/08/25 10:04:40;;;;;;;233.77;224.85;;;;;;;30.96;71.91;98178.28;4923599;28;103426;-73
2023/08/25 10:07:11;;;;;;;222.48;214.27;;;;;;;30.23;72.11;98192.94;4926470;28;103176;-74
2023/08/25 10:09:39;;;;;;;229.93;221.40;;;;;;;30.42;71.88;98207.19;4929703;28;102493;-73
2023/08/25 10:12:10;;;;;;;240.60;231.63;;;;;;;30.29;70.96;98191.13;4931495;28;102490;-72
2023/08/25 10:14:44;;;;;;;237.65;228.73;;;;;;;29.91;72.43;98204.66;4911337;28;103257;-73
2023/08/25 10:17:15;;;;;;;243.68;234.50;;;;;;;30.37;71.24;98194.28;4913080;28;102602;-74
2023/08/25 10:19:45;;;;;;;236.75;227.98;;;;;;;30.77;69.38;98193.22;4917365;28;102875;-74
2023/08/25 10:22:17;;;;;;;231.65;222.98;;;;;;;30.14;70.31;98197.19;4911466;28;102554;-73
2023/08/25 10:24:46;;;;;;;220.70;212.55;;;;;;;30.26;71.02;98181.56;4908548;28;104755;-73
2023/08/25 10:27:14;;;;;;;224.07;215.73;;;;;;;29.74;70.88;98178.22;4918779;28;103181;-73
2023/08/25 10:29:45;;;;;;;224.77;216.53;;;;;;;30.13;70.77;98181.91;4928679;28;102732;-73
2023/08/25 10:32:15;;;;;;;231.35;222.93;;;;;;;30.02;70.08;98185.53;4929350;28;102774;-73
2023/08/25 10:34:46;;;;;;;233.15;224.55;;;;;;;29.63;71.43;98205.50;4927580;28;103751;-73
2023/08/25 10:37:25;;;;;;;239.80;230.90;;;;;;;29.96;70.51;98215.63;4928498;28;103050;-73
2023/08/25 10:39:59;;;;;;;244.52;235.63;;;;;;;30.36;69.81;98214.44;4927394;28;103386;-73
2023/08/25 10:42:30;;;;;;;240.68;231.77;;;;;;;29.36;72.38;98229.78;4928089;28;102606;-73
2023/08/25 10:45:04;;;;;;;244.63;235.63;;;;;;;29.93;71.19;98221.56;4928364;28;103689;-73
2023/08/25 10:47:41;;;;;;;236.33;227.63;;;;;;;30.52;69.65;98233.75;4928681;28;103160;-73
2023/08/25 10:50:09;;;;;;;228.55;220.13;;;;;;;30.75;67.83;98248.03;4927843;28;102541;-73
2023/08/25 10:52:43;;;;;;;244.10;235.25;;;;;;;30.41;68.77;98255.41;4928430;28;103941;-73
2023/08/25 10:55:25;;;;;;;230.10;221.68;;;;;;;31.31;66.71;98266.00;4928216;28;103298;-72
2023/08/25 10:58:03;;;;;;;236.93;228.33;;;;;;;31.48;68.38;98255.88;4928339;28;103641;-73
2023/08/25 11:00:34;;;;;;;269.13;259.27;;;;;;;30.41;73.96;98260.84;4928534;28;103052;-74
2023/08/25 11:03:02;;;;;;;229.02;220.63;;;;;;;31.39;70.03;98253.81;4926757;28;102852;-73
2023/08/25 11:05:41;;;;;;;198.32;191.02;;;;;;;31.87;66.99;98247.53;4908979;28;103199;-73
2023/08/25 11:08:29;;;;;;;212.52;204.63;;;;;;;31.40;66.90;98247.28;4927611;28;103889;-73
2023/08/25 11:11:10;;;;;;;243.57;234.67;;;;;;;30.86;70.63;98238.06;4928948;28;103679;-73
2023/08/25 11:13:39;;;;;;;226.52;218.23;;;;;;;31.70;67.18;98241.34;4927742;28;102591;-73
2023/08/25 11:16:09;;;;;;;209.20;201.48;;;;;;;31.86;64.20;98229.53;4927595;28;104452;-75